sensor_id;sensor_type;location;lat;lon;timestamp;P1;durP1;ratioP1;P2;durP2;ratioP2
23290;SDS011;11814;44.686;10.842;2022-07-05T00:01:45;6.97;;;3.83;;
23290;SDS011;11814;44.686;10.842;2022-07-05T00:04:10;11.00;;;3.92;;
23290;SDS011;11814;44.686;10.842;2022-07-05T00:06:39;11.25;;;4.32;;
23290;SDS011;11814;44.686;10.842;2022-07-05T00:09:26;8.82;;;4.60;;
23290;SDS011;11814;44.686;10.842;2022-07-05T00:11:52;10.30;;;4.32;;
23290;SDS011;11814;44.686;10.842;2022-07-05T00:14:21;10.10;;;4.55;;
23290;SDS011;11814;44.686;10.842;2022-07-05T00:16:47;8.00;;;4.15;;
23290;SDS011;11814;44.686;10.842;2022-07-05T00:19:14;13.85;;;4.55;;
23290;SDS011;11814;44.686;10.842;2022-07-05T00:21:43;9.00;;;4.10;;
23290;SDS011;11814;44.686;10.842;2022-07-05T00:24:09;11.13;;;4.45;;
23290;SDS011;11814;44.686;10.842;2022-07-05T00:26:35;7.97;;;4.05;;
23290;SDS011;11814;44.686;10.842;2022-07-05T00:29:00;7.00;;;3.63;;
23290;SDS011;11814;44.686;10.842;2022-07-05T00:31:26;8.57;;;3.97;;
23290;SDS011;11814;44.686;10.842;2022-07-05T00:33:52;10.77;;;3.95;;
23290;SDS011;11814;44.686;10.842;2022-07-05T00:36:18;10.07;;;3.83;;
23290;SDS011;11814;44.686;10.842;2022-07-05T00:38:44;12.40;;;4.68;;
23290;SDS011;11814;44.686;10.842;2022-07-05T00:41:09;12.23;;;4.57;;
23290;SDS011;11814;44.686;10.842;2022-07-05T00:43:50;6.93;;;4.30;;
23290;SDS011;11814;44.686;10.842;2022-07-05T00:46:21;10.27;;;4.78;;
23290;SDS011;11814;44.686;10.842;2022-07-05T00:48:50;11.52;;;4.93;;
23290;SDS011;11814;44.686;10.842;2022-07-05T00:51:16;10.43;;;4.95;;
23290;SDS011;11814;44.686;10.842;2022-07-05T00:53:42;9.20;;;5.00;;
23290;SDS011;11814;44.686;10.842;2022-07-05T00:56:09;7.90;;;4.32;;
23290;SDS011;11814;44.686;10.842;2022-07-05T00:58:36;9.95;;;4.82;;
23290;SDS011;11814;44.686;10.842;2022-07-05T01:01:02;9.13;;;4.65;;
23290;SDS011;11814;44.686;10.842;2022-07-05T01:03:29;12.25;;;5.20;;
23290;SDS011;11814;44.686;10.842;2022-07-05T01:05:55;14.93;;;4.75;;
23290;SDS011;11814;44.686;10.842;2022-07-05T01:08:22;6.75;;;5.50;;
23290;SDS011;11814;44.686;10.842;2022-07-05T01:10:49;12.82;;;5.30;;
23290;SDS011;11814;44.686;10.842;2022-07-05T01:13:16;12.13;;;5.55;;
23290;SDS011;11814;44.686;10.842;2022-07-05T01:15:42;10.75;;;5.43;;
23290;SDS011;11814;44.686;10.842;2022-07-05T01:18:12;10.38;;;5.07;;
23290;SDS011;11814;44.686;10.842;2022-07-05T01:20:37;11.60;;;5.60;;
23290;SDS011;11814;44.686;10.842;2022-07-05T01:23:04;9.60;;;5.60;;
23290;SDS011;11814;44.686;10.842;2022-07-05T01:25:30;10.85;;;6.25;;
23290;SDS011;11814;44.686;10.842;2022-07-05T01:27:57;13.25;;;6.00;;
23290;SDS011;11814;44.686;10.842;2022-07-05T01:30:25;9.30;;;6.25;;
23290;SDS011;11814;44.686;10.842;2022-07-05T01:32:51;12.45;;;6.60;;
23290;SDS011;11814;44.686;10.842;2022-07-05T01:35:18;10.48;;;6.28;;
23290;SDS011;11814;44.686;10.842;2022-07-05T01:37:48;12.40;;;6.70;;
23290;SDS011;11814;44.686;10.842;2022-07-05T01:40:18;8.90;;;6.00;;
23290;SDS011;11814;44.686;10.842;2022-07-05T01:42:45;13.73;;;6.07;;
23290;SDS011;11814;44.686;10.842;2022-07-05T01:45:12;12.40;;;6.50;;
23290;SDS011;11814;44.686;10.842;2022-07-05T01:47:58;12.65;;;6.35;;
23290;SDS011;11814;44.686;10.842;2022-07-05T01:50:25;14.70;;;6.03;;
23290;SDS011;11814;44.686;10.842;2022-07-05T01:52:54;8.70;;;5.90;;
23290;SDS011;11814;44.686;10.842;2022-07-05T01:55:25;9.52;;;6.22;;
23290;SDS011;11814;44.686;10.842;2022-07-05T01:57:51;12.60;;;6.72;;
23290;SDS011;11814;44.686;10.842;2022-07-05T02:00:17;11.57;;;6.22;;
23290;SDS011;11814;44.686;10.842;2022-07-05T02:02:46;16.60;;;6.20;;
23290;SDS011;11814;44.686;10.842;2022-07-05T02:05:12;11.00;;;6.15;;
23290;SDS011;11814;44.686;10.842;2022-07-05T02:07:48;10.48;;;6.05;;
23290;SDS011;11814;44.686;10.842;2022-07-05T02:10:14;8.40;;;5.22;;
23290;SDS011;11814;44.686;10.842;2022-07-05T02:12:40;8.05;;;5.18;;
23290;SDS011;11814;44.686;10.842;2022-07-05T02:15:12;12.57;;;5.07;;
23290;SDS011;11814;44.686;10.842;2022-07-05T02:17:38;12.70;;;5.57;;
23290;SDS011;11814;44.686;10.842;2022-07-05T02:20:04;11.48;;;5.63;;
23290;SDS011;11814;44.686;10.842;2022-07-05T02:22:31;8.73;;;5.20;;
23290;SDS011;11814;44.686;10.842;2022-07-05T02:24:58;9.57;;;5.18;;
23290;SDS011;11814;44.686;10.842;2022-07-05T02:27:26;11.85;;;5.43;;
23290;SDS011;11814;44.686;10.842;2022-07-05T02:29:52;14.63;;;5.78;;
23290;SDS011;11814;44.686;10.842;2022-07-05T02:32:18;9.55;;;5.60;;
23290;SDS011;11814;44.686;10.842;2022-07-05T02:34:44;9.75;;;5.40;;
23290;SDS011;11814;44.686;10.842;2022-07-05T02:37:09;9.52;;;5.15;;
23290;SDS011;11814;44.686;10.842;2022-07-05T02:39:35;12.35;;;5.00;;
23290;SDS011;11814;44.686;10.842;2022-07-05T02:42:01;12.43;;;4.97;;
23290;SDS011;11814;44.686;10.842;2022-07-05T02:44:27;9.60;;;4.97;;
23290;SDS011;11814;44.686;10.842;2022-07-05T02:46:53;12.18;;;4.93;;
23290;SDS011;11814;44.686;10.842;2022-07-05T02:49:19;10.43;;;5.40;;
23290;SDS011;11814;44.686;10.842;2022-07-05T02:51:47;9.07;;;5.53;;
23290;SDS011;11814;44.686;10.842;2022-07-05T02:54:13;11.43;;;5.15;;
23290;SDS011;11814;44.686;10.842;2022-07-05T02:56:39;9.48;;;5.80;;
23290;SDS011;11814;44.686;10.842;2022-07-05T02:59:10;10.45;;;5.60;;
23290;SDS011;11814;44.686;10.842;2022-07-05T03:01:48;11.93;;;5.68;;
23290;SDS011;11814;44.686;10.842;2022-07-05T03:04:14;13.65;;;6.25;;
23290;SDS011;11814;44.686;10.842;2022-07-05T03:06:45;11.98;;;6.28;;
23290;SDS011;11814;44.686;10.842;2022-07-05T03:09:10;12.82;;;6.53;;
23290;SDS011;11814;44.686;10.842;2022-07-05T03:11:39;10.05;;;6.68;;
23290;SDS011;11814;44.686;10.842;2022-07-05T03:14:08;13.45;;;7.32;;
23290;SDS011;11814;44.686;10.842;2022-07-05T03:16:38;13.68;;;7.30;;
23290;SDS011;11814;44.686;10.842;2022-07-05T03:19:04;14.15;;;7.53;;
23290;SDS011;11814;44.686;10.842;2022-07-05T03:21:33;18.17;;;7.40;;
23290;SDS011;11814;44.686;10.842;2022-07-05T03:24:02;15.63;;;7.95;;
23290;SDS011;11814;44.686;10.842;2022-07-05T03:26:28;18.38;;;7.43;;
23290;SDS011;11814;44.686;10.842;2022-07-05T03:28:56;15.77;;;7.60;;
23290;SDS011;11814;44.686;10.842;2022-07-05T03:31:28;13.60;;;7.03;;
23290;SDS011;11814;44.686;10.842;2022-07-05T03:34:00;10.57;;;7.32;;
23290;SDS011;11814;44.686;10.842;2022-07-05T03:36:29;13.90;;;6.38;;
23290;SDS011;11814;44.686;10.842;2022-07-05T03:38:57;8.98;;;6.25;;
23290;SDS011;11814;44.686;10.842;2022-07-05T03:41:26;11.57;;;6.25;;
23290;SDS011;11814;44.686;10.842;2022-07-05T03:43:52;11.95;;;6.60;;
23290;SDS011;11814;44.686;10.842;2022-07-05T03:46:17;15.27;;;6.38;;
23290;SDS011;11814;44.686;10.842;2022-07-05T03:48:46;10.05;;;5.60;;
23290;SDS011;11814;44.686;10.842;2022-07-05T03:51:12;14.40;;;5.55;;
23290;SDS011;11814;44.686;10.842;2022-07-05T03:53:38;12.10;;;5.90;;
23290;SDS011;11814;44.686;10.842;2022-07-05T03:56:04;9.68;;;5.72;;
23290;SDS011;11814;44.686;10.842;2022-07-05T03:58:32;10.93;;;5.30;;
23290;SDS011;11814;44.686;10.842;2022-07-05T04:01:10;8.95;;;5.20;;
23290;SDS011;11814;44.686;10.842;2022-07-05T04:03:42;7.35;;;4.95;;
23290;SDS011;11814;44.686;10.842;2022-07-05T04:06:11;13.98;;;5.38;;
23290;SDS011;11814;44.686;10.842;2022-07-05T04:08:40;8.38;;;5.35;;
23290;SDS011;11814;44.686;10.842;2022-07-05T04:11:08;7.88;;;5.07;;
23290;SDS011;11814;44.686;10.842;2022-07-05T04:13:37;12.07;;;5.32;;
23290;SDS011;11814;44.686;10.842;2022-07-05T04:16:17;8.77;;;5.70;;
23290;SDS011;11814;44.686;10.842;2022-07-05T04:18:49;8.10;;;5.15;;
23290;SDS011;11814;44.686;10.842;2022-07-05T04:21:14;10.40;;;5.90;;
23290;SDS011;11814;44.686;10.842;2022-07-05T04:23:40;8.98;;;5.53;;
23290;SDS011;11814;44.686;10.842;2022-07-05T04:26:09;13.07;;;5.13;;
23290;SDS011;11814;44.686;10.842;2022-07-05T04:28:37;9.80;;;5.30;;
23290;SDS011;11814;44.686;10.842;2022-07-05T04:31:03;9.02;;;5.38;;
23290;SDS011;11814;44.686;10.842;2022-07-05T04:33:32;12.05;;;5.93;;
23290;SDS011;11814;44.686;10.842;2022-07-05T04:36:00;13.13;;;6.18;;
23290;SDS011;11814;44.686;10.842;2022-07-05T04:38:32;10.40;;;4.82;;
23290;SDS011;11814;44.686;10.842;2022-07-05T04:41:01;13.52;;;5.03;;
23290;SDS011;11814;44.686;10.842;2022-07-05T04:43:27;13.30;;;5.07;;
23290;SDS011;11814;44.686;10.842;2022-07-05T04:45:55;11.98;;;5.28;;
23290;SDS011;11814;44.686;10.842;2022-07-05T04:48:21;10.15;;;4.80;;
23290;SDS011;11814;44.686;10.842;2022-07-05T04:50:47;13.90;;;4.68;;
23290;SDS011;11814;44.686;10.842;2022-07-05T04:53:24;8.88;;;4.60;;
23290;SDS011;11814;44.686;10.842;2022-07-05T04:55:49;13.85;;;4.57;;
23290;SDS011;11814;44.686;10.842;2022-07-05T04:58:15;11.52;;;4.22;;
23290;SDS011;11814;44.686;10.842;2022-07-05T05:00:44;12.88;;;4.00;;
23290;SDS011;11814;44.686;10.842;2022-07-05T05:03:19;9.25;;;4.03;;
23290;SDS011;11814;44.686;10.842;2022-07-05T05:05:50;10.60;;;4.10;;
23290;SDS011;11814;44.686;10.842;2022-07-05T05:08:19;10.68;;;4.35;;
23290;SDS011;11814;44.686;10.842;2022-07-05T05:10:47;12.18;;;4.07;;
23290;SDS011;11814;44.686;10.842;2022-07-05T05:13:15;7.65;;;3.78;;
23290;SDS011;11814;44.686;10.842;2022-07-05T05:15:41;11.20;;;3.60;;
23290;SDS011;11814;44.686;10.842;2022-07-05T05:18:13;11.63;;;3.38;;
23290;SDS011;11814;44.686;10.842;2022-07-05T05:20:43;10.27;;;4.10;;
23290;SDS011;11814;44.686;10.842;2022-07-05T05:23:15;8.23;;;3.03;;
23290;SDS011;11814;44.686;10.842;2022-07-05T05:25:46;5.72;;;3.03;;
23290;SDS011;11814;44.686;10.842;2022-07-05T05:28:16;17.45;;;3.45;;
23290;SDS011;11814;44.686;10.842;2022-07-05T05:30:45;8.30;;;2.80;;
23290;SDS011;11814;44.686;10.842;2022-07-05T05:33:16;11.73;;;3.20;;
23290;SDS011;11814;44.686;10.842;2022-07-05T05:35:52;9.27;;;2.83;;
23290;SDS011;11814;44.686;10.842;2022-07-05T05:38:21;10.35;;;3.30;;
23290;SDS011;11814;44.686;10.842;2022-07-05T05:40:50;12.18;;;3.20;;
23290;SDS011;11814;44.686;10.842;2022-07-05T05:43:19;10.63;;;3.13;;
23290;SDS011;11814;44.686;10.842;2022-07-05T05:45:45;12.43;;;3.08;;
23290;SDS011;11814;44.686;10.842;2022-07-05T05:48:11;9.57;;;2.88;;
23290;SDS011;11814;44.686;10.842;2022-07-05T05:50:37;13.65;;;3.25;;
23290;SDS011;11814;44.686;10.842;2022-07-05T05:53:06;13.13;;;3.80;;
23290;SDS011;11814;44.686;10.842;2022-07-05T05:55:35;13.35;;;3.38;;
23290;SDS011;11814;44.686;10.842;2022-07-05T05:58:10;10.85;;;3.35;;
23290;SDS011;11814;44.686;10.842;2022-07-05T06:00:37;7.63;;;3.17;;
23290;SDS011;11814;44.686;10.842;2022-07-05T06:03:07;11.93;;;3.10;;
23290;SDS011;11814;44.686;10.842;2022-07-05T06:05:36;6.15;;;2.40;;
23290;SDS011;11814;44.686;10.842;2022-07-05T06:08:02;10.18;;;2.80;;
23290;SDS011;11814;44.686;10.842;2022-07-05T06:10:29;13.77;;;2.60;;
23290;SDS011;11814;44.686;10.842;2022-07-05T06:12:57;7.32;;;2.53;;
23290;SDS011;11814;44.686;10.842;2022-07-05T06:15:24;9.82;;;2.70;;
23290;SDS011;11814;44.686;10.842;2022-07-05T06:17:50;6.45;;;2.17;;
23290;SDS011;11814;44.686;10.842;2022-07-05T06:20:17;7.50;;;2.00;;
23290;SDS011;11814;44.686;10.842;2022-07-05T06:22:47;7.43;;;2.03;;
23290;SDS011;11814;44.686;10.842;2022-07-05T06:25:14;7.82;;;2.40;;
23290;SDS011;11814;44.686;10.842;2022-07-05T06:27:41;5.25;;;2.60;;
23290;SDS011;11814;44.686;10.842;2022-07-05T06:30:18;8.95;;;1.88;;
23290;SDS011;11814;44.686;10.842;2022-07-05T06:32:46;8.88;;;2.75;;
23290;SDS011;11814;44.686;10.842;2022-07-05T06:35:23;6.63;;;2.67;;
23290;SDS011;11814;44.686;10.842;2022-07-05T06:37:57;6.60;;;2.70;;
23290;SDS011;11814;44.686;10.842;2022-07-05T06:40:40;5.90;;;2.03;;
23290;SDS011;11814;44.686;10.842;2022-07-05T06:43:10;7.78;;;2.78;;
23290;SDS011;11814;44.686;10.842;2022-07-05T06:45:40;8.15;;;2.47;;
23290;SDS011;11814;44.686;10.842;2022-07-05T06:48:09;6.28;;;2.70;;
23290;SDS011;11814;44.686;10.842;2022-07-05T06:50:42;8.45;;;2.65;;
23290;SDS011;11814;44.686;10.842;2022-07-05T06:53:11;8.55;;;2.40;;
23290;SDS011;11814;44.686;10.842;2022-07-05T06:55:40;8.25;;;2.35;;
23290;SDS011;11814;44.686;10.842;2022-07-05T06:58:17;5.45;;;2.50;;
23290;SDS011;11814;44.686;10.842;2022-07-05T07:00:43;10.10;;;3.10;;
23290;SDS011;11814;44.686;10.842;2022-07-05T07:03:12;9.30;;;3.92;;
23290;SDS011;11814;44.686;10.842;2022-07-05T07:05:38;6.15;;;3.15;;
23290;SDS011;11814;44.686;10.842;2022-07-05T07:08:04;7.60;;;3.28;;
23290;SDS011;11814;44.686;10.842;2022-07-05T07:10:48;9.57;;;3.60;;
23290;SDS011;11814;44.686;10.842;2022-07-05T07:13:14;9.38;;;3.53;;
23290;SDS011;11814;44.686;10.842;2022-07-05T07:15:39;8.90;;;3.60;;
23290;SDS011;11814;44.686;10.842;2022-07-05T07:18:06;9.02;;;3.67;;
23290;SDS011;11814;44.686;10.842;2022-07-05T07:20:32;7.93;;;3.30;;
23290;SDS011;11814;44.686;10.842;2022-07-05T07:22:57;6.80;;;2.50;;
23290;SDS011;11814;44.686;10.842;2022-07-05T07:25:23;7.28;;;2.22;;
23290;SDS011;11814;44.686;10.842;2022-07-05T07:27:50;5.03;;;2.30;;
23290;SDS011;11814;44.686;10.842;2022-07-05T07:30:19;4.97;;;2.33;;
23290;SDS011;11814;44.686;10.842;2022-07-05T07:32:49;8.40;;;2.85;;
23290;SDS011;11814;44.686;10.842;2022-07-05T07:35:14;4.30;;;1.70;;
23290;SDS011;11814;44.686;10.842;2022-07-05T07:37:40;6.00;;;1.88;;
23290;SDS011;11814;44.686;10.842;2022-07-05T07:40:07;5.95;;;1.77;;
23290;SDS011;11814;44.686;10.842;2022-07-05T07:42:42;5.00;;;2.60;;
23290;SDS011;11814;44.686;10.842;2022-07-05T07:45:08;5.28;;;2.42;;
23290;SDS011;11814;44.686;10.842;2022-07-05T07:47:35;4.95;;;2.38;;
23290;SDS011;11814;44.686;10.842;2022-07-05T07:50:02;5.50;;;2.40;;
23290;SDS011;11814;44.686;10.842;2022-07-05T07:52:29;4.90;;;2.40;;
23290;SDS011;11814;44.686;10.842;2022-07-05T07:54:57;4.57;;;2.33;;
23290;SDS011;11814;44.686;10.842;2022-07-05T07:57:26;4.28;;;2.08;;
23290;SDS011;11814;44.686;10.842;2022-07-05T07:59:52;7.75;;;2.38;;
23290;SDS011;11814;44.686;10.842;2022-07-05T08:02:21;3.28;;;1.65;;
23290;SDS011;11814;44.686;10.842;2022-07-05T08:04:51;5.75;;;1.98;;
23290;SDS011;11814;44.686;10.842;2022-07-05T08:07:17;4.97;;;2.00;;
23290;SDS011;11814;44.686;10.842;2022-07-05T08:09:43;3.38;;;2.00;;
23290;SDS011;11814;44.686;10.842;2022-07-05T08:12:09;5.47;;;2.28;;
23290;SDS011;11814;44.686;10.842;2022-07-05T08:14:35;5.22;;;2.58;;
23290;SDS011;11814;44.686;10.842;2022-07-05T08:17:09;6.30;;;2.67;;
23290;SDS011;11814;44.686;10.842;2022-07-05T08:19:36;7.00;;;2.95;;
23290;SDS011;11814;44.686;10.842;2022-07-05T08:22:20;6.25;;;3.10;;
23290;SDS011;11814;44.686;10.842;2022-07-05T08:24:49;3.97;;;2.90;;
23290;SDS011;11814;44.686;10.842;2022-07-05T08:27:15;6.18;;;3.17;;
23290;SDS011;11814;44.686;10.842;2022-07-05T08:29:41;8.57;;;3.17;;
23290;SDS011;11814;44.686;10.842;2022-07-05T08:32:14;8.43;;;3.13;;
23290;SDS011;11814;44.686;10.842;2022-07-05T08:34:40;7.25;;;2.72;;
23290;SDS011;11814;44.686;10.842;2022-07-05T08:37:06;5.97;;;3.38;;
23290;SDS011;11814;44.686;10.842;2022-07-05T08:39:32;6.00;;;3.00;;
23290;SDS011;11814;44.686;10.842;2022-07-05T08:42:01;9.00;;;3.80;;
23290;SDS011;11814;44.686;10.842;2022-07-05T08:44:32;6.35;;;3.53;;
23290;SDS011;11814;44.686;10.842;2022-07-05T08:47:04;7.35;;;3.25;;
23290;SDS011;11814;44.686;10.842;2022-07-05T08:49:39;7.47;;;3.50;;
23290;SDS011;11814;44.686;10.842;2022-07-05T08:52:09;6.60;;;3.08;;
23290;SDS011;11814;44.686;10.842;2022-07-05T08:54:36;10.85;;;3.25;;
23290;SDS011;11814;44.686;10.842;2022-07-05T08:57:05;8.73;;;3.15;;
23290;SDS011;11814;44.686;10.842;2022-07-05T08:59:38;6.65;;;3.10;;
23290;SDS011;11814;44.686;10.842;2022-07-05T09:02:04;5.82;;;2.95;;
23290;SDS011;11814;44.686;10.842;2022-07-05T09:04:33;6.35;;;3.28;;
23290;SDS011;11814;44.686;10.842;2022-07-05T09:07:06;7.00;;;3.05;;
23290;SDS011;11814;44.686;10.842;2022-07-05T09:09:33;7.13;;;3.05;;
23290;SDS011;11814;44.686;10.842;2022-07-05T09:12:08;6.43;;;3.40;;
23290;SDS011;11814;44.686;10.842;2022-07-05T09:14:38;8.40;;;3.25;;
23290;SDS011;11814;44.686;10.842;2022-07-05T09:17:06;10.93;;;2.90;;
23290;SDS011;11814;44.686;10.842;2022-07-05T09:19:32;6.95;;;3.03;;
23290;SDS011;11814;44.686;10.842;2022-07-05T09:22:04;4.97;;;3.28;;
23290;SDS011;11814;44.686;10.842;2022-07-05T09:24:45;6.28;;;2.50;;
23290;SDS011;11814;44.686;10.842;2022-07-05T09:27:14;6.97;;;2.20;;
23290;SDS011;11814;44.686;10.842;2022-07-05T09:29:58;8.68;;;2.78;;
23290;SDS011;11814;44.686;10.842;2022-07-05T09:32:24;5.55;;;3.10;;
23290;SDS011;11814;44.686;10.842;2022-07-05T09:34:53;6.25;;;2.83;;
23290;SDS011;11814;44.686;10.842;2022-07-05T09:37:43;5.45;;;2.55;;
23290;SDS011;11814;44.686;10.842;2022-07-05T09:40:09;8.55;;;3.10;;
23290;SDS011;11814;44.686;10.842;2022-07-05T09:42:38;9.00;;;4.38;;
23290;SDS011;11814;44.686;10.842;2022-07-05T09:45:09;9.65;;;3.70;;
23290;SDS011;11814;44.686;10.842;2022-07-05T09:47:35;5.30;;;3.55;;
23290;SDS011;11814;44.686;10.842;2022-07-05T09:50:07;8.40;;;3.58;;
23290;SDS011;11814;44.686;10.842;2022-07-05T09:52:35;5.80;;;3.20;;
23290;SDS011;11814;44.686;10.842;2022-07-05T09:55:15;12.38;;;3.78;;
23290;SDS011;11814;44.686;10.842;2022-07-05T09:57:45;7.65;;;4.03;;
23290;SDS011;11814;44.686;10.842;2022-07-05T10:00:15;9.65;;;4.10;;
23290;SDS011;11814;44.686;10.842;2022-07-05T10:02:49;10.90;;;4.00;;
23290;SDS011;11814;44.686;10.842;2022-07-05T10:05:26;8.77;;;4.93;;
23290;SDS011;11814;44.686;10.842;2022-07-05T10:07:57;6.13;;;3.67;;
23290;SDS011;11814;44.686;10.842;2022-07-05T10:10:30;9.50;;;3.60;;
23290;SDS011;11814;44.686;10.842;2022-07-05T10:12:57;9.80;;;4.05;;
23290;SDS011;11814;44.686;10.842;2022-07-05T10:15:34;6.55;;;3.60;;
23290;SDS011;11814;44.686;10.842;2022-07-05T10:18:11;5.68;;;3.40;;
23290;SDS011;11814;44.686;10.842;2022-07-05T10:25:40;9.00;;;2.38;;
23290;SDS011;11814;44.686;10.842;2022-07-05T10:28:22;5.88;;;2.70;;
23290;SDS011;11814;44.686;10.842;2022-07-05T10:30:54;5.82;;;2.95;;
23290;SDS011;11814;44.686;10.842;2022-07-05T10:33:21;7.32;;;3.55;;
23290;SDS011;11814;44.686;10.842;2022-07-05T10:35:52;4.85;;;2.50;;
23290;SDS011;11814;44.686;10.842;2022-07-05T10:38:21;5.10;;;2.53;;
23290;SDS011;11814;44.686;10.842;2022-07-05T10:40:52;5.15;;;1.90;;
23290;SDS011;11814;44.686;10.842;2022-07-05T10:43:24;6.10;;;1.80;;
23290;SDS011;11814;44.686;10.842;2022-07-05T10:45:53;3.10;;;1.30;;
23290;SDS011;11814;44.686;10.842;2022-07-05T10:48:25;2.72;;;1.67;;
23290;SDS011;11814;44.686;10.842;2022-07-05T10:54:00;4.53;;;2.20;;
23290;SDS011;11814;44.686;10.842;2022-07-05T10:56:29;3.75;;;1.50;;
23290;SDS011;11814;44.686;10.842;2022-07-05T10:59:16;4.78;;;1.40;;
23290;SDS011;11814;44.686;10.842;2022-07-05T11:01:43;5.40;;;1.83;;
23290;SDS011;11814;44.686;10.842;2022-07-05T11:04:23;3.95;;;1.60;;
23290;SDS011;11814;44.686;10.842;2022-07-05T11:06:52;2.25;;;1.20;;
23290;SDS011;11814;44.686;10.842;2022-07-05T11:09:18;4.28;;;1.13;;
23290;SDS011;11814;44.686;10.842;2022-07-05T11:12:06;3.97;;;1.30;;
23290;SDS011;11814;44.686;10.842;2022-07-05T11:14:46;5.65;;;1.67;;
23290;SDS011;11814;44.686;10.842;2022-07-05T11:17:13;3.90;;;1.48;;
23290;SDS011;11814;44.686;10.842;2022-07-05T11:20:12;2.67;;;1.40;;
23290;SDS011;11814;44.686;10.842;2022-07-05T11:25:32;3.47;;;1.40;;
23290;SDS011;11814;44.686;10.842;2022-07-05T11:31:11;3.65;;;1.67;;
23290;SDS011;11814;44.686;10.842;2022-07-05T11:34:05;4.85;;;1.88;;
23290;SDS011;11814;44.686;10.842;2022-07-05T11:36:42;4.75;;;1.33;;
23290;SDS011;11814;44.686;10.842;2022-07-05T11:41:48;5.22;;;1.92;;
23290;SDS011;11814;44.686;10.842;2022-07-05T11:44:20;4.13;;;1.88;;
23290;SDS011;11814;44.686;10.842;2022-07-05T11:46:51;8.38;;;1.77;;
23290;SDS011;11814;44.686;10.842;2022-07-05T11:49:20;4.00;;;1.88;;
23290;SDS011;11814;44.686;10.842;2022-07-05T11:51:54;3.78;;;1.30;;
23290;SDS011;11814;44.686;10.842;2022-07-05T11:54:27;4.60;;;1.52;;
23290;SDS011;11814;44.686;10.842;2022-07-05T11:57:08;4.75;;;1.80;;
23290;SDS011;11814;44.686;10.842;2022-07-05T11:59:41;4.35;;;1.80;;
23290;SDS011;11814;44.686;10.842;2022-07-05T12:02:07;2.55;;;1.27;;
23290;SDS011;11814;44.686;10.842;2022-07-05T12:04:35;3.53;;;1.50;;
23290;SDS011;11814;44.686;10.842;2022-07-05T12:07:01;3.90;;;1.50;;
23290;SDS011;11814;44.686;10.842;2022-07-05T12:09:33;5.88;;;1.42;;
23290;SDS011;11814;44.686;10.842;2022-07-05T12:12:21;5.25;;;1.40;;
23290;SDS011;11814;44.686;10.842;2022-07-05T12:15:16;3.70;;;1.42;;
23290;SDS011;11814;44.686;10.842;2022-07-05T12:17:51;4.85;;;1.17;;
23290;SDS011;11814;44.686;10.842;2022-07-05T12:20:23;5.07;;;1.63;;
23290;SDS011;11814;44.686;10.842;2022-07-05T12:22:52;2.20;;;1.40;;
23290;SDS011;11814;44.686;10.842;2022-07-05T12:25:24;3.72;;;1.60;;
23290;SDS011;11814;44.686;10.842;2022-07-05T12:30:46;2.95;;;1.10;;
23290;SDS011;11814;44.686;10.842;2022-07-05T12:33:11;3.70;;;1.20;;
23290;SDS011;11814;44.686;10.842;2022-07-05T12:38:19;2.80;;;0.90;;
23290;SDS011;11814;44.686;10.842;2022-07-05T12:40:47;4.22;;;1.25;;
23290;SDS011;11814;44.686;10.842;2022-07-05T12:43:17;4.22;;;1.23;;
23290;SDS011;11814;44.686;10.842;2022-07-05T12:45:59;2.80;;;1.25;;
23290;SDS011;11814;44.686;10.842;2022-07-05T12:48:38;2.95;;;1.20;;
23290;SDS011;11814;44.686;10.842;2022-07-05T12:51:10;1.30;;;0.75;;
23290;SDS011;11814;44.686;10.842;2022-07-05T12:53:49;2.90;;;1.05;;
23290;SDS011;11814;44.686;10.842;2022-07-05T12:56:33;1.77;;;0.98;;
23290;SDS011;11814;44.686;10.842;2022-07-05T12:59:21;4.43;;;1.00;;
23290;SDS011;11814;44.686;10.842;2022-07-05T13:01:49;4.55;;;1.20;;
23290;SDS011;11814;44.686;10.842;2022-07-05T13:04:20;5.18;;;1.20;;
23290;SDS011;11814;44.686;10.842;2022-07-05T13:09:33;6.28;;;1.00;;
23290;SDS011;11814;44.686;10.842;2022-07-05T13:12:18;4.65;;;0.98;;
23290;SDS011;11814;44.686;10.842;2022-07-05T13:14:53;4.82;;;0.90;;
23290;SDS011;11814;44.686;10.842;2022-07-05T13:17:23;7.45;;;1.40;;
23290;SDS011;11814;44.686;10.842;2022-07-05T13:19:52;3.40;;;1.25;;
23290;SDS011;11814;44.686;10.842;2022-07-05T13:22:35;5.80;;;1.10;;
23290;SDS011;11814;44.686;10.842;2022-07-05T13:25:06;7.00;;;1.50;;
23290;SDS011;11814;44.686;10.842;2022-07-05T13:27:38;11.00;;;1.40;;
23290;SDS011;11814;44.686;10.842;2022-07-05T13:30:13;5.55;;;1.52;;
23290;SDS011;11814;44.686;10.842;2022-07-05T13:32:39;5.20;;;1.27;;
23290;SDS011;11814;44.686;10.842;2022-07-05T13:35:05;11.63;;;1.55;;
23290;SDS011;11814;44.686;10.842;2022-07-05T13:37:30;7.00;;;1.40;;
23290;SDS011;11814;44.686;10.842;2022-07-05T13:39:59;9.43;;;1.42;;
23290;SDS011;11814;44.686;10.842;2022-07-05T13:42:34;5.65;;;1.15;;
23290;SDS011;11814;44.686;10.842;2022-07-05T13:45:00;12.38;;;1.67;;
23290;SDS011;11814;44.686;10.842;2022-07-05T13:47:25;7.15;;;1.45;;
23290;SDS011;11814;44.686;10.842;2022-07-05T13:49:51;4.13;;;1.27;;
23290;SDS011;11814;44.686;10.842;2022-07-05T13:52:37;7.13;;;1.50;;
23290;SDS011;11814;44.686;10.842;2022-07-05T13:55:06;8.10;;;1.60;;
23290;SDS011;11814;44.686;10.842;2022-07-05T13:57:37;7.07;;;1.50;;
23290;SDS011;11814;44.686;10.842;2022-07-05T14:00:15;1.85;;;0.90;;
23290;SDS011;11814;44.686;10.842;2022-07-05T14:02:43;6.13;;;1.33;;
23290;SDS011;11814;44.686;10.842;2022-07-05T14:05:15;5.70;;;1.27;;
23290;SDS011;11814;44.686;10.842;2022-07-05T14:07:45;5.80;;;1.40;;
23290;SDS011;11814;44.686;10.842;2022-07-05T14:10:14;9.43;;;1.92;;
23290;SDS011;11814;44.686;10.842;2022-07-05T14:12:49;7.78;;;1.52;;
23290;SDS011;11814;44.686;10.842;2022-07-05T14:15:20;6.00;;;1.48;;
23290;SDS011;11814;44.686;10.842;2022-07-05T14:17:49;7.35;;;1.38;;
23290;SDS011;11814;44.686;10.842;2022-07-05T14:20:15;5.97;;;1.73;;
23290;SDS011;11814;44.686;10.842;2022-07-05T14:22:41;4.70;;;1.02;;
23290;SDS011;11814;44.686;10.842;2022-07-05T14:25:09;5.60;;;1.50;;
23290;SDS011;11814;44.686;10.842;2022-07-05T14:27:37;6.65;;;1.30;;
23290;SDS011;11814;44.686;10.842;2022-07-05T14:30:05;5.45;;;1.30;;
23290;SDS011;11814;44.686;10.842;2022-07-05T14:32:40;9.20;;;1.63;;
23290;SDS011;11814;44.686;10.842;2022-07-05T14:35:06;7.70;;;1.48;;
23290;SDS011;11814;44.686;10.842;2022-07-05T14:37:43;4.65;;;1.50;;
23290;SDS011;11814;44.686;10.842;2022-07-05T14:40:15;4.18;;;1.10;;
23290;SDS011;11814;44.686;10.842;2022-07-05T14:42:49;3.78;;;0.90;;
23290;SDS011;11814;44.686;10.842;2022-07-05T14:45:15;9.55;;;1.42;;
23290;SDS011;11814;44.686;10.842;2022-07-05T14:47:44;10.68;;;1.65;;
23290;SDS011;11814;44.686;10.842;2022-07-05T14:50:11;5.13;;;1.38;;
23290;SDS011;11814;44.686;10.842;2022-07-05T14:52:37;5.00;;;1.30;;
23290;SDS011;11814;44.686;10.842;2022-07-05T14:55:05;4.22;;;1.27;;
23290;SDS011;11814;44.686;10.842;2022-07-05T14:57:35;3.65;;;1.17;;
23290;SDS011;11814;44.686;10.842;2022-07-05T15:00:09;8.82;;;1.30;;
23290;SDS011;11814;44.686;10.842;2022-07-05T15:03:08;3.97;;;1.25;;
23290;SDS011;11814;44.686;10.842;2022-07-05T15:05:34;5.03;;;1.08;;
23290;SDS011;11814;44.686;10.842;2022-07-05T15:08:03;4.25;;;1.10;;
23290;SDS011;11814;44.686;10.842;2022-07-05T15:10:32;6.63;;;1.50;;
23290;SDS011;11814;44.686;10.842;2022-07-05T15:13:08;4.95;;;1.20;;